createdAt,value
2019-04-01T00:01:57.708Z,10.53
2019-04-01T00:04:34.041Z,9.70
2019-04-01T00:07:10.320Z,10.93
2019-04-01T00:09:47.588Z,10.37
2019-04-01T00:12:23.438Z,9.77
2019-04-01T00:18:40.475Z,9.60
2019-04-01T00:25:00.378Z,9.50
2019-04-01T00:27:37.464Z,10.90
2019-04-01T00:30:13.531Z,9.60
2019-04-01T00:36:31.577Z,10.13
2019-04-01T00:39:09.112Z,9.63
2019-04-01T00:42:10.518Z,9.93
2019-04-01T00:44:55.103Z,10.70
2019-04-01T00:47:32.469Z,10.17
2019-04-01T00:56:31.506Z,10.50
2019-04-01T00:59:09.618Z,11.40
2019-04-01T01:05:30.737Z,11.37
2019-04-01T01:11:51.682Z,10.87
2019-04-01T01:17:57.652Z,11.50
2019-04-01T01:20:34.150Z,11.03
2019-04-01T01:23:12.129Z,11.30
2019-04-01T01:29:18.818Z,10.83
2019-04-01T01:31:55.699Z,10.47
2019-04-01T01:34:34.609Z,11.33
2019-04-01T01:40:41.643Z,10.93
2019-04-01T01:43:18.492Z,10.73
2019-04-01T01:45:57.411Z,12.03
2019-04-01T01:48:36.553Z,11.00
2019-04-01T01:51:15.674Z,11.63
2019-04-01T01:53:52.765Z,11.07
2019-04-01T01:56:34.352Z,11.20
2019-04-01T02:02:52.603Z,10.83
2019-04-01T02:05:29.708Z,11.80
2019-04-01T02:08:09.432Z,11.47
2019-04-01T02:10:46.135Z,10.80
2019-04-01T02:13:24.127Z,11.73
2019-04-01T02:16:00.881Z,11.17
2019-04-01T02:18:39.126Z,12.07
2019-04-01T02:27:34.358Z,11.90
2019-04-01T02:30:10.596Z,10.90
2019-04-01T02:32:47.674Z,11.43
2019-04-01T02:35:24.357Z,11.50
2019-04-01T02:41:45.689Z,10.97
2019-04-01T02:44:23.595Z,11.20
2019-04-01T02:47:02.513Z,11.17
2019-04-01T02:53:07.467Z,11.93
2019-04-01T02:55:44.342Z,11.63
2019-04-01T02:58:21.445Z,12.13
2019-04-01T03:00:59.532Z,11.63
2019-04-01T03:03:38.468Z,11.50
2019-04-01T03:09:46.490Z,11.60
2019-04-01T03:12:23.561Z,11.00
2019-04-01T03:14:59.414Z,12.47
2019-04-01T03:17:38.760Z,11.43
2019-04-01T03:20:17.686Z,12.07
2019-04-01T03:26:22.626Z,12.77
2019-04-01T03:28:59.704Z,11.83
2019-04-01T03:31:37.818Z,12.10
2019-04-01T03:34:15.714Z,12.03
2019-04-01T03:36:56.485Z,11.10
2019-04-01T03:39:44.637Z,12.37
2019-04-01T03:42:20.482Z,12.07
2019-04-01T03:45:00.629Z,12.67
2019-04-01T03:47:37.730Z,11.93
2019-04-01T03:53:41.635Z,12.63
2019-04-01T03:59:47.833Z,11.40
2019-04-01T04:02:23.606Z,12.33
2019-04-01T04:05:00.618Z,12.80
2019-04-01T04:07:36.408Z,12.07
2019-04-01T04:10:13.697Z,11.67
2019-04-01T04:12:52.160Z,11.57
2019-04-01T04:15:30.150Z,11.73
2019-04-01T04:21:47.974Z,12.33
2019-04-01T04:28:06.633Z,11.87
2019-04-01T04:34:26.745Z,11.27
2019-04-01T04:37:12.634Z,13.50
2019-04-01T04:39:57.906Z,11.60
2019-04-01T04:48:40.782Z,12.63
2019-04-01T04:51:18.665Z,11.37
2019-04-01T04:57:24.838Z,11.97
2019-04-01T05:00:01.926Z,11.97
2019-04-01T05:02:39.619Z,12.47
2019-04-01T05:05:17.534Z,13.20
2019-04-01T05:07:58.712Z,12.30
2019-04-01T05:10:43.783Z,12.57
2019-04-01T05:13:23.717Z,13.07
2019-04-01T05:19:37.020Z,13.00
2019-04-01T05:22:13.737Z,12.80
2019-04-01T05:28:24.844Z,12.70
2019-04-01T05:34:52.732Z,14.33
2019-04-01T05:41:08.740Z,13.47
2019-04-01T05:47:17.997Z,14.10
2019-04-01T05:53:23.560Z,13.50
2019-04-01T05:56:05.569Z,13.87
2019-04-01T05:58:43.669Z,13.63
2019-04-01T06:01:22.166Z,14.67
2019-04-01T06:04:00.900Z,15.33
2019-04-01T06:10:14.464Z,15.27
2019-04-01T06:12:52.763Z,15.87
2019-04-01T06:15:30.677Z,15.40
2019-04-01T06:18:07.754Z,15.40
2019-04-01T06:20:42.780Z,16.33
2019-04-01T06:23:21.531Z,15.23
2019-04-01T06:26:02.086Z,16.10
2019-04-01T06:28:37.174Z,16.90
2019-04-01T06:31:11.746Z,17.07
2019-04-01T06:33:50.645Z,15.93
2019-04-01T06:36:26.714Z,16.57
2019-04-01T06:39:10.421Z,17.60
2019-04-01T06:41:48.037Z,16.40
2019-04-01T06:44:24.362Z,16.47
2019-04-01T06:50:13.093Z,18.47
2019-04-01T06:52:48.921Z,17.37
2019-04-01T06:58:42.821Z,17.77
2019-04-01T07:01:17.237Z,18.13
2019-04-01T07:03:53.910Z,18.60
2019-04-01T07:10:11.771Z,17.80
2019-04-01T07:16:27.997Z,19.30
2019-04-01T07:22:50.964Z,19.27
2019-04-01T07:25:28.865Z,18.77
2019-04-01T07:28:07.791Z,19.07
2019-04-01T07:30:43.633Z,19.50
2019-04-01T07:33:30.269Z,19.20
2019-04-01T07:39:33.862Z,20.37
2019-04-01T07:42:11.767Z,20.37
2019-04-01T07:44:51.923Z,19.73
2019-04-01T07:47:35.755Z,20.23
2019-04-01T07:50:21.411Z,19.97
2019-04-01T07:52:57.093Z,19.50
2019-04-01T07:55:38.388Z,20.03
2019-04-01T08:04:12.335Z,19.80
2019-04-01T08:12:57.034Z,19.53
2019-04-01T08:19:14.865Z,18.13
2019-04-01T08:21:52.451Z,19.43
2019-04-01T08:24:28.005Z,19.33
2019-04-01T08:30:43.220Z,19.63
2019-04-01T08:33:25.769Z,19.97
2019-04-01T08:36:02.131Z,19.37
2019-04-01T08:38:43.261Z,21.43
2019-04-01T08:41:24.265Z,21.77
2019-04-01T08:50:58.077Z,19.03
2019-04-01T08:53:34.357Z,20.33
2019-04-01T08:56:11.250Z,21.40
2019-04-01T08:58:47.886Z,21.00
2019-04-01T09:04:54.883Z,21.10
2019-04-01T09:11:05.165Z,21.60
2019-04-01T09:17:12.753Z,21.83
2019-04-01T09:19:55.208Z,22.40
2019-04-01T09:22:31.040Z,22.40
2019-04-01T09:25:11.198Z,22.93
2019-04-01T09:27:44.660Z,23.97
2019-04-01T09:33:52.617Z,21.97
2019-04-01T09:39:50.674Z,23.10
2019-04-01T09:42:34.776Z,23.03
2019-04-01T09:49:09.103Z,22.57
2019-04-01T09:55:37.187Z,23.97
2019-04-01T10:01:43.996Z,22.63
2019-04-01T10:07:49.673Z,23.13
2019-04-01T10:14:07.406Z,23.67
2019-04-01T10:17:02.308Z,25.23
2019-04-01T10:19:36.934Z,22.93
2019-04-01T10:25:51.500Z,24.27
2019-04-01T10:28:31.945Z,22.73
2019-04-01T10:31:06.727Z,22.87
2019-04-01T10:33:44.393Z,22.73
2019-04-01T10:36:20.245Z,23.77
2019-04-01T10:38:56.100Z,24.40
2019-04-01T10:41:36.256Z,23.13
2019-04-01T10:44:13.337Z,21.80
2019-04-01T10:46:50.030Z,23.40
2019-04-01T10:49:27.807Z,22.63
2019-04-01T10:52:02.748Z,23.23
2019-04-01T10:54:52.116Z,23.33
2019-04-01T10:57:29.237Z,23.10
2019-04-01T11:00:04.737Z,24.20
2019-04-01T11:02:38.812Z,24.93
2019-04-01T11:08:41.979Z,23.03
2019-04-01T11:14:46.501Z,23.10
2019-04-01T11:20:56.529Z,23.40
2019-04-01T11:27:09.759Z,23.13
2019-04-01T11:29:48.237Z,21.57
2019-04-01T11:32:23.775Z,24.63
2019-04-01T11:35:03.450Z,23.60
2019-04-01T11:37:39.307Z,24.07
2019-04-01T11:43:54.747Z,22.63
2019-04-01T11:46:31.589Z,23.13
2019-04-01T11:49:08.793Z,23.23
2019-04-01T11:55:20.348Z,22.93
2019-04-01T11:57:56.739Z,24.23
2019-04-01T12:00:38.397Z,24.10
2019-04-01T12:03:15.294Z,23.03
2019-04-01T12:05:52.197Z,23.03
2019-04-01T12:08:37.633Z,22.03
2019-04-01T12:11:13.277Z,24.03
2019-04-01T12:13:49.948Z,23.50
2019-04-01T12:16:29.751Z,24.30
2019-04-01T12:19:07.183Z,23.30
2019-04-01T12:21:43.750Z,23.83
2019-04-01T12:24:19.750Z,22.97
2019-04-01T12:26:55.356Z,23.17
2019-04-01T12:29:38.994Z,22.50
2019-04-01T12:32:10.563Z,23.93
2019-04-01T12:34:49.758Z,23.73
2019-04-01T12:37:39.891Z,24.13
2019-04-01T12:40:21.756Z,23.17
2019-04-01T12:42:57.310Z,22.63
2019-04-01T12:45:33.382Z,22.83
2019-04-01T12:48:10.234Z,22.00
2019-04-01T12:50:54.317Z,22.07
2019-04-01T12:53:36.279Z,21.97
2019-04-01T12:56:21.144Z,22.53
2019-04-01T12:58:58.640Z,22.37
2019-04-01T13:01:34.381Z,21.33
2019-04-01T13:04:11.364Z,21.00
2019-04-01T13:06:51.947Z,21.10
2019-04-01T13:09:28.756Z,21.70
2019-04-01T13:12:04.754Z,20.20
2019-04-01T13:14:40.764Z,20.17
2019-04-01T13:17:17.387Z,20.20
2019-04-01T13:19:53.247Z,20.77
2019-04-01T13:22:30.734Z,20.87
2019-04-01T13:25:08.422Z,19.23
2019-04-01T13:27:45.302Z,20.93
2019-04-01T13:30:24.082Z,20.77
2019-04-01T13:33:18.868Z,19.73
2019-04-01T13:35:55.395Z,20.47
2019-04-01T13:42:12.448Z,19.07
2019-04-01T13:44:53.194Z,19.57
2019-04-01T13:47:29.246Z,20.60
2019-04-01T13:50:08.383Z,19.67
2019-04-01T13:52:45.256Z,19.30
2019-04-01T13:59:01.280Z,20.70
2019-04-01T14:05:20.354Z,20.43
2019-04-01T14:12:02.172Z,20.83
2019-04-01T14:14:39.505Z,20.30
2019-04-01T14:17:16.333Z,19.27
2019-04-01T14:19:56.493Z,19.53
2019-04-01T14:22:33.160Z,20.80
2019-04-01T14:28:49.994Z,19.10
2019-04-01T14:31:28.300Z,20.00
2019-04-01T14:34:06.265Z,19.53
2019-04-01T14:40:27.344Z,19.93
2019-04-01T14:43:07.285Z,19.73
2019-04-01T14:45:51.329Z,19.97
2019-04-01T14:48:45.211Z,19.40
2019-04-01T14:54:49.783Z,18.27
2019-04-01T15:00:59.000Z,18.83
2019-04-01T15:07:04.364Z,18.77
2019-04-01T15:13:30.765Z,18.60
2019-04-01T15:16:06.057Z,18.13
2019-04-01T15:22:12.245Z,17.90
2019-04-01T15:24:49.119Z,17.13
2019-04-01T15:27:32.745Z,17.67
2019-04-01T15:30:13.955Z,16.47
2019-04-01T15:36:20.794Z,17.87
2019-04-01T15:38:55.806Z,18.27
2019-04-01T15:41:33.271Z,17.07
2019-04-01T15:44:12.420Z,17.63
2019-04-01T15:46:50.895Z,18.40
2019-04-01T15:52:43.829Z,17.97
2019-04-01T15:59:07.377Z,19.27
2019-04-01T16:01:44.235Z,17.90
2019-04-01T16:04:21.520Z,17.67
2019-04-01T16:06:57.373Z,17.67
2019-04-01T16:09:32.847Z,19.13
2019-04-01T16:12:10.323Z,17.03
2019-04-01T16:14:47.417Z,17.70
2019-04-01T16:17:24.688Z,16.83
2019-04-01T16:20:00.323Z,17.27
2019-04-01T16:22:35.840Z,18.00
2019-04-01T16:25:13.495Z,18.60
2019-04-01T16:27:53.511Z,17.83
2019-04-01T16:30:32.363Z,18.93
2019-04-01T16:33:08.415Z,18.87
2019-04-01T16:35:42.874Z,16.90
2019-04-01T16:38:18.054Z,17.93
2019-04-01T16:40:53.841Z,19.17
2019-04-01T16:43:34.263Z,19.57
2019-04-01T16:46:11.357Z,18.43
2019-04-01T16:54:46.855Z,17.13
2019-04-01T16:57:23.844Z,18.03
2019-04-01T17:00:00.177Z,17.63
2019-04-01T17:06:17.412Z,16.57
2019-04-01T17:08:55.107Z,17.90
2019-04-01T17:15:13.849Z,17.37
2019-04-01T17:21:17.844Z,17.90
2019-04-01T17:23:56.159Z,16.53
2019-04-01T17:26:32.490Z,16.90
2019-04-01T17:32:35.406Z,17.50
2019-04-01T17:38:36.467Z,18.07
2019-04-01T17:41:12.321Z,18.03
2019-04-01T17:44:07.413Z,18.90
2019-04-01T17:46:47.371Z,17.83
2019-04-01T17:49:23.232Z,18.30
2019-04-01T17:51:57.875Z,18.77
2019-04-01T17:54:35.342Z,19.03
2019-04-01T18:00:43.165Z,17.97
2019-04-01T18:03:25.961Z,18.70
2019-04-01T18:06:00.852Z,19.70
2019-04-01T18:08:35.212Z,22.03
2019-04-01T18:11:19.281Z,21.27
2019-04-01T18:17:23.188Z,21.60
2019-04-01T18:20:02.868Z,22.77
2019-04-01T18:22:38.788Z,22.67
2019-04-01T18:28:42.962Z,22.10
2019-04-01T18:31:18.568Z,21.93
2019-04-01T18:33:56.782Z,20.33
2019-04-01T18:39:47.946Z,17.83
2019-04-01T18:42:17.029Z,19.37
2019-04-01T18:44:54.194Z,19.77
2019-04-01T18:47:30.404Z,20.93
2019-04-01T18:50:11.728Z,20.43
2019-04-01T18:52:47.791Z,20.87
2019-04-01T18:55:22.612Z,18.83
2019-04-01T18:57:56.630Z,18.80
2019-04-01T19:00:33.401Z,19.03
2019-04-01T19:03:09.623Z,19.57
2019-04-01T19:05:46.977Z,19.10
2019-04-01T19:08:22.917Z,18.63
2019-04-01T19:11:02.745Z,19.87
2019-04-01T19:13:42.217Z,20.17
2019-04-01T19:16:17.848Z,20.03
2019-04-01T19:18:53.890Z,19.27
2019-04-01T19:21:32.002Z,20.07
2019-04-01T19:24:11.445Z,21.10
2019-04-01T19:26:46.978Z,19.73
2019-04-01T19:29:22.017Z,20.23
2019-04-01T19:31:58.890Z,20.50
2019-04-01T19:34:36.150Z,20.70
2019-04-01T19:37:13.420Z,20.80
2019-04-01T19:39:49.741Z,20.63
2019-04-01T19:42:25.415Z,19.33
2019-04-01T19:45:01.025Z,21.33
2019-04-01T19:47:37.907Z,22.23
2019-04-01T19:50:18.065Z,20.80
2019-04-01T19:52:55.400Z,20.30
2019-04-01T19:55:30.999Z,21.87
2019-04-01T19:58:10.728Z,22.57
2019-04-01T20:00:47.433Z,21.63
2019-04-01T20:06:52.973Z,22.37
2019-04-01T20:13:11.865Z,21.77
2019-04-01T20:15:47.930Z,23.07
2019-04-01T20:18:26.457Z,21.47
2019-04-01T20:31:15.647Z,24.20
2019-04-01T20:33:52.432Z,23.87
2019-04-01T20:39:57.071Z,24.17
2019-04-01T20:42:34.153Z,24.03
2019-04-01T20:45:11.060Z,23.30
2019-04-01T20:51:16.002Z,25.27
2019-04-01T20:57:21.914Z,24.70
2019-04-01T21:03:46.609Z,24.17
2019-04-01T21:09:46.485Z,24.10
2019-04-01T21:16:21.959Z,26.77
2019-04-01T21:25:31.198Z,23.50
2019-04-01T21:31:45.912Z,24.10
2019-04-01T21:38:04.632Z,23.73
2019-04-01T21:40:41.591Z,23.10
2019-04-01T21:43:16.928Z,23.03
2019-04-01T21:49:21.061Z,24.40
2019-04-01T21:51:56.091Z,23.83
2019-04-01T21:54:31.127Z,25.20
2019-04-01T22:00:51.440Z,24.23
2019-04-01T22:03:25.585Z,25.03
2019-04-01T22:06:01.095Z,24.47
2019-04-01T22:12:12.681Z,25.03
2019-04-01T22:14:50.097Z,25.13
2019-04-01T22:17:27.995Z,24.73
2019-04-01T22:20:04.054Z,24.30
2019-04-01T22:26:18.681Z,25.77
2019-04-01T22:28:52.684Z,24.27
2019-04-01T22:31:28.289Z,24.03
2019-04-01T22:37:42.695Z,23.07
2019-04-01T22:40:18.120Z,23.27
2019-04-01T22:42:58.875Z,24.13
2019-04-01T22:49:02.688Z,24.23
2019-04-01T22:51:37.273Z,23.20
2019-04-01T22:54:12.053Z,22.23
2019-04-01T23:00:25.808Z,22.13
2019-04-01T23:03:00.234Z,23.63
2019-04-01T23:05:34.689Z,24.63
2019-04-01T23:11:38.990Z,23.50
2019-04-01T23:14:14.689Z,23.60
2019-04-01T23:16:48.689Z,24.97
2019-04-01T23:22:52.171Z,22.87
2019-04-01T23:29:08.179Z,24.33
2019-04-01T23:31:43.694Z,25.20
2019-04-01T23:34:18.691Z,24.93
2019-04-01T23:36:54.905Z,24.67
2019-04-01T23:39:30.363Z,24.30
2019-04-01T23:45:46.578Z,24.47
2019-04-01T23:48:20.711Z,25.07
2019-04-01T23:50:54.712Z,24.97
2019-04-01T23:53:31.238Z,25.07
2019-04-01T23:56:06.303Z,24.70
